Time;durP1;ratioP1;P1;durP2;ratioP2;P2;SDS_P1;SDS_P2;PMS_P1;PMS_P2;Temp;Humidity;BMP_temperature;BMP_pressure;BME280_temperature;BME280_humidity;BME280_pressure;Samples;Min_cycle;Max_cycle;Signal;HPM_P1;HPM_P2
2022/04/21 00:00:27;;;;;;;8.38;5.95;;;12.90;53.10;;;;;;5033463;28;20287;-86
2022/04/21 00:02:53;;;;;;;7.90;5.80;;;12.90;53.20;;;;;;5056769;28;20232;-87
2022/04/21 00:05:19;;;;;;;9.53;5.70;;;12.70;53.50;;;;;;5056161;28;20415;-87
2022/04/21 00:07:48;;;;;;;8.67;5.80;;;12.70;53.50;;;;;;5056438;28;20597;-87
2022/04/21 00:10:14;;;;;;;6.40;5.10;;;12.60;53.80;;;;;;5057256;28;21012;-88
2022/04/21 00:12:40;;;;;;;9.80;5.78;;;12.60;54.10;;;;;;5058406;28;20276;-88
2022/04/21 00:15:07;;;;;;;7.77;5.20;;;12.60;54.00;;;;;;5057351;28;20212;-88
2022/04/21 00:17:33;;;;;;;7.63;6.18;;;12.60;54.10;;;;;;5058182;28;20423;-88
2022/04/21 00:19:59;;;;;;;6.43;5.80;;;12.60;54.20;;;;;;5060897;28;20292;-87
2022/04/21 00:25:11;;;;;;;7.72;5.85;;;12.70;54.10;;;;;;5068443;28;20234;-88
2022/04/21 00:27:43;;;;;;;9.07;6.20;;;12.60;54.20;;;;;;5068872;28;20189;-87
2022/04/21 00:30:10;;;;;;;8.55;6.20;;;12.60;54.10;;;;;;5046189;28;20439;-87
2022/04/21 00:32:38;;;;;;;10.23;6.00;;;12.50;54.20;;;;;;5059241;28;20188;-87
2022/04/21 00:35:11;;;;;;;8.85;6.63;;;12.50;54.50;;;;;;5064878;28;20197;-87
2022/04/21 00:37:58;;;;;;;10.13;5.50;;;12.40;54.70;;;;;;5073201;28;20189;-86
2022/04/21 00:40:26;;;;;;;9.10;6.85;;;12.40;55.00;;;;;;5090541;28;20208;-87
2022/04/21 00:42:54;;;;;;;8.45;5.95;;;12.50;55.10;;;;;;5066868;28;20620;-86
2022/04/21 00:45:20;;;;;;;6.32;5.60;;;12.40;55.00;;;;;;5057165;28;20641;-87
2022/04/21 00:47:46;;;;;;;7.50;5.75;;;12.40;55.10;;;;;;5057044;28;20177;-86
2022/04/21 00:50:15;;;;;;;10.73;6.03;;;12.40;55.10;;;;;;5055845;28;20201;-86
2022/04/21 00:52:42;;;;;;;8.00;5.93;;;12.40;55.20;;;;;;5056077;28;20272;-86
2022/04/21 00:55:09;;;;;;;10.63;6.90;;;12.40;55.20;;;;;;5055716;28;20181;-87
2022/04/21 00:57:35;;;;;;;10.82;6.85;;;12.40;55.30;;;;;;5058613;28;20173;-86
2022/04/21 01:00:04;;;;;;;8.63;6.15;;;12.40;55.20;;;;;;5055722;28;20197;-88
2022/04/21 01:02:46;;;;;;;8.45;6.07;;;12.30;55.40;;;;;;5056266;28;20213;-87
2022/04/21 01:05:30;;;;;;;7.32;5.90;;;12.30;55.50;;;;;;5056589;28;20161;-87
2022/04/21 01:08:02;;;;;;;12.95;6.90;;;12.30;55.60;;;;;;5058254;28;20173;-87
2022/04/21 01:10:30;;;;;;;11.90;6.03;;;12.30;55.50;;;;;;5061525;28;20193;-87
2022/04/21 01:12:58;;;;;;;8.27;6.18;;;12.30;55.50;;;;;;5065680;28;20185;-88
2022/04/21 01:15:24;;;;;;;9.80;6.00;;;12.20;55.40;;;;;;5059024;28;20188;-87
2022/04/21 01:17:52;;;;;;;9.20;6.07;;;12.20;55.60;;;;;;5068361;28;20566;-86
2022/04/21 01:20:19;;;;;;;11.85;7.05;;;12.20;55.50;;;;;;5067201;28;20999;-87
2022/04/21 01:22:46;;;;;;;8.13;6.13;;;12.10;55.70;;;;;;5067975;28;20197;-89
2022/04/21 01:25:12;;;;;;;16.98;7.00;;;12.00;56.10;;;;;;5069312;28;20195;-86
2022/04/21 01:27:39;;;;;;;9.77;6.15;;;12.00;56.30;;;;;;5066238;28;20744;-85
2022/04/21 01:30:08;;;;;;;7.65;5.57;;;11.90;56.70;;;;;;5057673;28;20339;-86
2022/04/21 01:32:35;;;;;;;8.90;6.25;;;12.00;56.60;;;;;;5057465;28;20177;-86
2022/04/21 01:35:08;;;;;;;8.45;6.22;;;12.00;56.40;;;;;;5057514;28;20177;-86
2022/04/21 01:43:12;;;;;;;8.55;6.00;;;12.00;56.70;;;;;;5068327;28;20199;-88
2022/04/21 01:45:38;;;;;;;14.18;6.50;;;11.90;56.70;;;;;;5066273;28;20177;-86
2022/04/21 01:48:05;;;;;;;11.82;7.00;;;12.00;56.60;;;;;;5059346;28;20288;-85
2022/04/21 01:50:31;;;;;;;7.90;6.10;;;11.90;56.70;;;;;;5055842;28;20580;-86
2022/04/21 01:52:58;;;;;;;8.38;5.93;;;11.80;57.10;;;;;;5055716;28;20612;-85
2022/04/21 01:55:25;;;;;;;6.88;5.80;;;11.80;57.10;;;;;;5064525;28;20272;-87
2022/04/21 01:57:51;;;;;;;8.25;7.20;;;11.80;57.30;;;;;;5055460;28;20181;-86
2022/04/21 02:00:17;;;;;;;7.63;6.10;;;11.70;57.50;;;;;;5072267;28;20213;-86
2022/04/21 02:02:42;;;;;;;9.97;7.53;;;11.70;57.50;;;;;;5056297;28;20463;-86
2022/04/21 02:05:19;;;;;;;13.40;6.30;;;11.70;57.70;;;;;;5055030;28;20574;-86
2022/04/21 02:07:46;;;;;;;8.13;7.05;;;11.60;57.70;;;;;;5056444;28;20407;-86
2022/04/21 02:10:13;;;;;;;9.23;5.82;;;11.70;57.90;;;;;;5053875;28;20684;-86
2022/04/21 02:12:39;;;;;;;10.20;6.95;;;11.60;57.90;;;;;;5054552;28;20188;-87
2022/04/21 02:15:06;;;;;;;11.30;6.93;;;11.50;58.40;;;;;;5054919;28;20196;-86
2022/04/21 02:17:35;;;;;;;11.55;6.93;;;11.50;58.60;;;;;;5056214;28;20228;-86
2022/04/21 02:20:03;;;;;;;8.65;6.95;;;11.40;58.80;;;;;;5054031;28;20283;-87
2022/04/21 02:22:29;;;;;;;12.85;7.38;;;11.50;58.80;;;;;;5056109;28;20227;-86
2022/04/21 02:24:55;;;;;;;8.17;6.47;;;11.50;58.60;;;;;;5056371;28;20708;-87
2022/04/21 02:27:21;;;;;;;13.17;6.70;;;11.40;58.80;;;;;;5056826;28;20295;-86
2022/04/21 02:29:48;;;;;;;8.53;5.70;;;11.40;58.90;;;;;;5054539;28;20484;-86
2022/04/21 02:32:15;;;;;;;8.40;6.10;;;11.40;59.00;;;;;;5055332;28;20181;-86
2022/04/21 02:34:41;;;;;;;8.55;7.03;;;11.30;59.30;;;;;;5057096;28;20683;-88
2022/04/21 02:37:07;;;;;;;12.67;6.90;;;11.40;59.20;;;;;;5062088;28;20185;-87
2022/04/21 02:39:33;;;;;;;9.05;6.53;;;11.30;59.30;;;;;;5084592;28;20411;-86
2022/04/21 02:42:00;;;;;;;9.73;7.23;;;11.30;59.60;;;;;;5072916;28;20213;-87
2022/04/21 02:44:26;;;;;;;11.63;7.65;;;11.30;59.70;;;;;;5072000;28;20428;-86
2022/04/21 02:46:52;;;;;;;15.50;7.57;;;11.30;59.70;;;;;;5067244;28;20177;-86
2022/04/21 02:49:18;;;;;;;11.95;7.30;;;11.10;60.00;;;;;;5065626;28;20443;-86
2022/04/21 02:51:44;;;;;;;9.23;6.88;;;11.20;60.30;;;;;;5078053;22;20239;-86
2022/04/21 02:59:41;;;;;;;10.10;6.70;;;11.10;60.70;;;;;;5115343;28;20158;-87
2022/04/21 03:02:07;;;;;;;9.90;6.75;;;11.10;60.60;;;;;;5095768;28;20211;-87
2022/04/21 03:04:33;;;;;;;10.40;7.10;;;11.20;60.50;;;;;;5091847;28;20711;-87
2022/04/21 03:06:59;;;;;;;11.33;7.60;;;11.10;60.60;;;;;;5097018;28;20176;-87
2022/04/21 03:09:25;;;;;;;12.90;7.15;;;11.00;60.90;;;;;;5087613;28;20955;-87
2022/04/21 03:11:50;;;;;;;10.40;7.73;;;11.00;61.10;;;;;;5109400;28;20211;-86
2022/04/21 03:14:18;;;;;;;9.13;7.67;;;10.90;62.20;;;;;;5096673;28;20226;-88
2022/04/21 03:16:44;;;;;;;13.95;8.00;;;10.90;61.70;;;;;;5097585;28;20417;-86
2022/04/21 03:19:10;;;;;;;11.70;7.68;;;10.90;61.60;;;;;;5102238;28;20203;-86
2022/04/21 03:24:20;;;;;;;8.82;7.30;;;10.80;61.50;;;;;;5090296;28;20181;-85
2022/04/21 03:26:51;;;;;;;11.73;8.00;;;10.80;61.50;;;;;;5104337;28;20246;-85
2022/04/21 03:29:17;;;;;;;8.50;6.78;;;10.90;61.40;;;;;;5089943;28;20449;-85
2022/04/21 03:31:43;;;;;;;8.47;7.10;;;10.80;61.50;;;;;;5086229;28;20206;-87
2022/04/21 03:34:13;;;;;;;13.27;7.53;;;10.80;61.50;;;;;;5100813;28;20880;-87
2022/04/21 03:36:47;;;;;;;10.80;7.10;;;10.80;61.70;;;;;;5105959;28;20320;-85
2022/04/21 03:39:12;;;;;;;11.70;7.22;;;10.80;61.70;;;;;;5117235;28;20258;-85
2022/04/21 03:41:38;;;;;;;14.53;7.60;;;10.80;62.60;;;;;;5100587;28;20237;-85
2022/04/21 03:44:05;;;;;;;14.73;8.10;;;10.80;61.80;;;;;;5101968;28;20421;-85
2022/04/21 03:46:31;;;;;;;11.90;8.20;;;10.80;61.80;;;;;;5104423;28;20171;-86
2022/04/21 03:48:58;;;;;;;9.18;6.10;;;10.80;61.80;;;;;;5104858;28;20171;-86
2022/04/21 03:51:27;;;;;;;13.02;8.07;;;10.90;61.80;;;;;;5137076;28;20289;-87
2022/04/21 03:53:54;;;;;;;10.40;7.57;;;10.90;61.50;;;;;;5106605;28;20672;-87
2022/04/21 03:56:20;;;;;;;12.80;7.28;;;10.90;61.40;;;;;;5099477;28;20664;-86
2022/04/21 03:58:46;;;;;;;15.98;8.80;;;10.90;61.40;;;;;;5088880;28;20187;-87
2022/04/21 04:01:12;;;;;;;11.93;6.50;;;10.80;61.60;;;;;;5078839;28;20176;-86
2022/04/21 04:03:38;;;;;;;10.87;7.33;;;10.90;61.50;;;;;;5106384;28;20497;-86
2022/04/21 04:10:51;;;;;;;10.32;7.72;;;10.90;61.50;;;;;;5098874;28;20421;-86
2022/04/21 04:11:35;;;;;;;9.48;7.95;;;10.70;61.90;;;;;;5117873;28;20579;-87
2022/04/21 04:14:00;;;;;;;10.00;7.97;;;10.70;62.00;;;;;;5115750;28;20175;-86
2022/04/21 04:16:28;;;;;;;10.70;8.03;;;10.70;62.00;;;;;;5099917;28;20238;-86
2022/04/21 04:18:54;;;;;;;11.95;7.70;;;10.60;62.20;;;;;;5122468;28;20639;-86
2022/04/21 04:21:20;;;;;;;12.37;7.90;;;10.70;62.40;;;;;;5101590;28;20367;-86
2022/04/21 04:23:45;;;;;;;10.47;7.60;;;10.60;62.40;;;;;;5094308;28;20244;-86
2022/04/21 04:26:11;;;;;;;9.60;7.30;;;10.60;62.50;;;;;;5100457;28;20178;-86
2022/04/21 04:28:37;;;;;;;12.63;8.20;;;10.60;62.50;;;;;;5094310;28;20176;-86
2022/04/21 04:31:02;;;;;;;10.60;8.10;;;10.40;62.90;;;;;;5103608;28;20341;-86
2022/04/21 04:33:28;;;;;;;9.53;7.90;;;10.50;63.00;;;;;;5095951;28;20206;-86
2022/04/21 04:35:54;;;;;;;10.80;7.57;;;10.50;63.00;;;;;;5120478;28;20476;-87
2022/04/21 04:38:19;;;;;;;9.43;7.83;;;10.60;62.90;;;;;;5121218;28;20172;-86
2022/04/21 04:40:45;;;;;;;10.70;7.87;;;10.50;62.90;;;;;;5121410;28;20186;-86
2022/04/21 04:43:11;;;;;;;14.37;8.50;;;10.60;62.80;;;;;;5119789;28;20219;-87
2022/04/21 04:48:31;;;;;;;9.75;7.05;;;10.40;63.20;;;;;;5138870;28;20158;-87
2022/04/21 04:50:56;;;;;;;9.70;7.37;;;10.40;63.40;;;;;;5120727;28;20171;-87
2022/04/21 04:53:22;;;;;;;15.83;8.27;;;10.40;63.20;;;;;;5110634;28;20309;-87
2022/04/21 04:55:48;;;;;;;14.33;9.07;;;10.40;63.20;;;;;;5103368;28;20187;-87
2022/04/21 04:58:13;;;;;;;15.07;8.70;;;10.40;63.50;;;;;;5116770;28;20436;-87
2022/04/21 05:00:39;;;;;;;9.63;7.90;;;10.40;63.50;;;;;;5098579;28;20183;-86
2022/04/21 05:03:05;;;;;;;10.97;8.70;;;10.40;63.40;;;;;;5071358;28;20207;-86
2022/04/21 05:05:30;;;;;;;10.90;8.00;;;10.40;63.50;;;;;;5118982;28;20258;-86
2022/04/21 05:07:56;;;;;;;12.00;7.80;;;10.50;63.20;;;;;;5096272;28;20692;-86
2022/04/21 05:10:23;;;;;;;12.33;9.00;;;10.40;63.20;;;;;;5079712;28;20550;-86
2022/04/21 05:12:49;;;;;;;12.02;7.28;;;10.40;63.20;;;;;;5097948;28;20685;-86
2022/04/21 05:15:15;;;;;;;9.00;7.97;;;10.40;63.10;;;;;;5079807;28;20190;-86
2022/04/21 05:17:41;;;;;;;10.70;7.97;;;10.50;63.00;;;;;;5108994;28;20182;-86
2022/04/21 05:20:07;;;;;;;11.65;7.57;;;10.50;63.00;;;;;;5085927;28;20180;-86
2022/04/21 05:22:39;;;;;;;9.73;7.93;;;10.50;63.20;;;;;;5069754;28;20268;-86
2022/04/21 05:25:09;;;;;;;13.20;7.65;;;10.60;63.00;;;;;;5100751;28;20260;-86
2022/04/21 05:27:37;;;;;;;10.52;7.57;;;10.90;62.50;;;;;;5103361;28;20175;-86
2022/04/21 05:32:51;;;;;;;11.98;8.52;;;11.80;59.60;;;;;;5105915;28;20203;-85
2022/04/21 05:35:18;;;;;;;11.50;7.47;;;12.30;58.10;;;;;;5080869;28;20663;-86
2022/04/21 05:37:44;;;;;;;11.55;8.13;;;12.60;56.70;;;;;;5083153;28;20561;-87
2022/04/21 05:40:11;;;;;;;8.53;7.70;;;13.10;55.10;;;;;;5092786;28;20176;-87
2022/04/21 05:42:45;;;;;;;11.73;8.35;;;13.40;54.10;;;;;;5077165;28;20466;-86
2022/04/21 05:45:15;;;;;;;8.32;7.43;;;13.70;53.20;;;;;;5097033;28;20249;-86
2022/04/21 05:47:41;;;;;;;8.18;7.07;;;14.30;51.60;;;;;;5094764;28;20188;-87
2022/04/21 05:50:08;;;;;;;8.73;7.85;;;14.70;50.00;;;;;;5093541;28;20194;-86
2022/04/21 05:52:38;;;;;;;12.43;7.28;;;15.20;48.80;;;;;;5085536;28;20212;-87
2022/04/21 05:55:04;;;;;;;9.38;6.63;;;15.70;47.50;;;;;;5096348;28;20183;-87
2022/04/21 05:57:30;;;;;;;11.85;8.40;;;15.90;46.70;;;;;;5096515;28;20176;-86
2022/04/21 05:59:55;;;;;;;9.57;6.73;;;16.10;45.70;;;;;;5107032;28;20580;-85
2022/04/21 06:02:21;;;;;;;10.77;6.70;;;16.80;44.30;;;;;;5097409;28;20214;-85
2022/04/21 06:04:47;;;;;;;11.63;7.00;;;16.90;43.50;;;;;;5097661;28;20301;-85
2022/04/21 06:07:14;;;;;;;11.85;7.70;;;17.10;43.20;;;;;;5115442;28;20412;-85
2022/04/21 06:09:41;;;;;;;8.15;7.28;;;17.70;42.00;;;;;;5099198;28;20631;-85
2022/04/21 06:12:09;;;;;;;10.07;7.13;;;18.20;40.70;;;;;;5090343;28;20195;-85
2022/04/21 06:14:35;;;;;;;11.48;7.30;;;18.70;39.30;;;;;;5116404;28;20194;-86
2022/04/21 06:17:01;;;;;;;10.68;7.05;;;18.80;38.50;;;;;;5117041;28;20620;-86
2022/04/21 06:19:27;;;;;;;10.23;6.20;;;18.70;38.20;;;;;;5088066;28;20185;-86
2022/04/21 06:21:52;;;;;;;8.03;6.10;;;18.50;38.40;;;;;;5107033;28;20717;-86
2022/04/21 06:24:18;;;;;;;6.83;6.10;;;18.60;38.40;;;;;;5093112;28;20180;-86
2022/04/21 06:26:44;;;;;;;8.60;6.50;;;18.80;38.00;;;;;;5108202;28;20256;-87
2022/04/21 06:29:10;;;;;;;7.90;6.07;;;19.10;37.50;;;;;;5116304;28;20203;-87
2022/04/21 06:31:36;;;;;;;13.45;5.82;;;19.10;37.20;;;;;;5116357;28;20183;-86
2022/04/21 06:34:03;;;;;;;8.70;6.53;;;19.30;37.10;;;;;;5081337;28;20196;-87
2022/04/21 06:36:28;;;;;;;7.53;5.87;;;19.30;36.80;;;;;;5096786;28;20176;-87
2022/04/21 06:38:54;;;;;;;9.10;6.37;;;19.60;36.20;;;;;;5097565;28;20467;-87
2022/04/21 06:41:20;;;;;;;8.53;6.60;;;19.90;35.60;;;;;;5096103;28;20168;-87
2022/04/21 06:49:14;;;;;;;7.70;6.20;;;19.90;35.00;;;;;;5108137;28;20455;-87
2022/04/21 06:51:40;;;;;;;12.13;6.40;;;20.00;34.70;;;;;;5093258;28;20429;-87
2022/04/21 06:54:06;;;;;;;8.23;6.03;;;19.80;34.90;;;;;;5107678;28;20168;-87
2022/04/21 06:56:32;;;;;;;8.27;6.37;;;19.50;35.30;;;;;;5080700;28;20425;-87
2022/04/21 06:58:59;;;;;;;9.80;6.13;;;18.70;36.70;;;;;;5080139;28;20449;-87
2022/04/21 07:01:25;;;;;;;7.20;6.50;;;18.60;37.10;;;;;;5081610;28;20183;-86
2022/04/21 07:03:50;;;;;;;8.50;6.70;;;17.90;38.10;;;;;;5075070;28;20199;-86
2022/04/21 07:06:17;;;;;;;10.87;7.00;;;17.40;39.50;;;;;;5116503;28;20199;-87
2022/04/21 07:08:42;;;;;;;12.20;7.38;;;16.80;41.00;;;;;;5089991;28;20213;-87
2022/04/21 07:11:08;;;;;;;12.73;7.17;;;16.40;42.20;;;;;;5077665;28;20180;-86
2022/04/21 07:13:34;;;;;;;9.17;7.40;;;16.10;43.30;;;;;;5078021;28;20437;-87
2022/04/21 07:16:00;;;;;;;9.23;6.80;;;15.80;44.40;;;;;;5078152;28;20172;-86
2022/04/21 07:18:25;;;;;;;10.57;6.67;;;15.30;45.50;;;;;;5078756;28;20171;-86
2022/04/21 07:20:51;;;;;;;9.60;7.20;;;14.90;47.30;;;;;;5080101;28;20168;-86
2022/04/21 07:23:17;;;;;;;13.03;7.90;;;14.70;47.60;;;;;;5109347;28;20208;-86
2022/04/21 07:25:42;;;;;;;8.00;6.83;;;14.50;48.20;;;;;;5102406;28;20538;-86
2022/04/21 07:28:08;;;;;;;8.10;7.27;;;14.30;48.50;;;;;;5077408;28;20270;-86
2022/04/21 07:30:34;;;;;;;10.17;8.43;;;14.20;49.10;;;;;;5077901;28;20179;-86
2022/04/21 07:33:00;;;;;;;11.67;8.13;;;14.30;49.10;;;;;;5061596;28;20588;-86
2022/04/21 07:35:26;;;;;;;9.20;7.20;;;14.40;49.40;;;;;;5080156;28;20164;-86
2022/04/21 07:37:52;;;;;;;8.75;7.57;;;14.30;49.40;;;;;;5076323;28;20244;-86
2022/04/21 07:40:20;;;;;;;9.40;6.60;;;14.30;49.40;;;;;;5069531;28;20679;-86
2022/04/21 07:42:47;;;;;;;11.00;7.40;;;14.30;49.70;;;;;;5074770;28;20300;-86
2022/04/21 07:45:13;;;;;;;10.20;7.50;;;14.40;49.20;;;;;;5074805;28;20214;-86
2022/04/21 07:47:39;;;;;;;6.82;6.07;;;14.50;48.80;;;;;;5093707;28;20191;-86
2022/04/21 07:50:05;;;;;;;9.53;6.33;;;14.30;48.90;;;;;;5076050;28;20175;-86
2022/04/21 07:55:25;;;;;;;10.30;7.00;;;14.50;48.60;;;;;;5094961;28;20170;-86
2022/04/21 07:57:57;;;;;;;7.53;6.63;;;14.60;48.40;;;;;;5095189;28;20183;-87
2022/04/21 08:00:23;;;;;;;8.00;6.35;;;14.60;48.10;;;;;;5077588;28;20225;-86
2022/04/21 08:02:50;;;;;;;9.68;6.93;;;14.70;47.90;;;;;;5078861;28;20207;-86
2022/04/21 08:05:17;;;;;;;7.20;6.30;;;14.70;47.80;;;;;;5079624;28;20180;-86
2022/04/21 08:07:44;;;;;;;9.95;6.28;;;14.60;47.10;;;;;;5078204;28;20172;-86
2022/04/21 08:10:12;;;;;;;6.22;5.18;;;14.70;47.10;;;;;;5076562;28;20221;-86
2022/04/21 08:12:41;;;;;;;9.23;5.30;;;14.80;46.70;;;;;;5075461;28;20227;-86
2022/04/21 08:15:08;;;;;;;8.48;5.65;;;14.80;46.80;;;;;;5076409;28;20199;-86
2022/04/21 08:17:36;;;;;;;8.93;5.43;;;14.80;47.00;;;;;;5077734;28;20637;-86
2022/04/21 08:20:07;;;;;;;6.57;5.97;;;14.90;47.00;;;;;;5081156;28;20182;-86
2022/04/21 08:22:33;;;;;;;7.07;5.85;;;15.10;46.60;;;;;;5080269;28;20212;-87
2022/04/21 08:33:11;;;;;;;7.10;5.85;;;15.00;45.90;;;;;;5102638;28;20206;-86
2022/04/21 08:35:37;;;;;;;7.03;5.73;;;15.10;46.20;;;;;;5103233;28;20175;-86
2022/04/21 08:38:03;;;;;;;10.70;6.60;;;15.20;46.40;;;;;;5084758;28;20176;-86
2022/04/21 08:40:31;;;;;;;9.40;5.97;;;15.30;46.50;;;;;;5084729;28;20175;-86
2022/04/21 08:42:59;;;;;;;7.43;6.32;;;15.40;46.60;;;;;;5101579;28;20208;-86
2022/04/21 08:45:26;;;;;;;8.30;6.35;;;15.60;46.10;;;;;;5080946;28;20233;-86
2022/04/21 08:47:57;;;;;;;5.78;5.28;;;15.70;46.10;;;;;;5064161;28;20214;-85
2022/04/21 08:50:24;;;;;;;7.18;5.57;;;15.70;45.60;;;;;;5064041;28;20259;-86
2022/04/21 08:52:49;;;;;;;5.13;4.63;;;15.70;45.50;;;;;;5079302;28;20215;-86
2022/04/21 08:55:16;;;;;;;7.40;6.27;;;15.80;44.90;;;;;;5098965;28;20219;-86
2022/04/21 08:57:42;;;;;;;7.88;5.68;;;16.00;44.10;;;;;;5063594;28;20275;-86
2022/04/21 09:00:08;;;;;;;11.60;5.07;;;16.00;44.20;;;;;;5081537;28;20218;-86
2022/04/21 09:02:40;;;;;;;6.25;5.68;;;15.90;44.00;;;;;;5081478;28;20203;-86
2022/04/21 09:05:07;;;;;;;7.80;5.75;;;16.00;43.20;;;;;;5099188;28;20180;-86
2022/04/21 09:07:42;;;;;;;10.13;5.50;;;15.90;43.50;;;;;;5099345;28;20176;-86
2022/04/21 09:10:13;;;;;;;10.20;6.13;;;15.90;43.60;;;;;;5061493;28;20192;-86
2022/04/21 09:12:47;;;;;;;7.63;5.70;;;16.00;43.60;;;;;;5079318;28;20271;-86
2022/04/21 09:15:14;;;;;;;9.02;5.22;;;16.10;43.50;;;;;;5070102;28;20177;-85
2022/04/21 09:17:46;;;;;;;7.75;5.90;;;16.10;43.60;;;;;;5084421;28;20175;-86
2022/04/21 09:20:15;;;;;;;5.53;4.55;;;16.20;43.70;;;;;;5080897;28;20178;-86
2022/04/21 09:22:47;;;;;;;6.07;5.00;;;16.20;43.40;;;;;;5098998;28;20208;-86
2022/04/21 09:25:12;;;;;;;7.75;4.80;;;16.20;42.80;;;;;;5080425;28;20827;-86
2022/04/21 09:27:43;;;;;;;5.23;4.30;;;16.20;42.70;;;;;;5084286;28;20265;-86
2022/04/21 09:30:12;;;;;;;5.60;4.72;;;16.30;42.30;;;;;;5096806;28;20176;-86
2022/04/21 09:32:40;;;;;;;9.80;5.05;;;16.30;41.60;;;;;;5080662;28;20299;-86
2022/04/21 09:35:12;;;;;;;6.10;4.55;;;16.40;41.70;;;;;;5097002;23;20415;-86
2022/04/21 09:37:53;;;;;;;13.75;5.00;;;16.40;41.50;;;;;;5065902;28;20180;-87
2022/04/21 09:40:22;;;;;;;8.57;4.72;;;16.40;41.10;;;;;;5068654;28;20240;-87
2022/04/21 09:42:57;;;;;;;6.22;4.30;;;16.30;41.00;;;;;;5067909;28;20200;-87
2022/04/21 09:48:28;;;;;;;5.97;5.45;;;16.40;41.30;;;;;;5088679;28;20196;-87
2022/04/21 09:50:55;;;;;;;6.47;4.32;;;16.40;41.40;;;;;;5078655;28;20252;-87
2022/04/21 09:53:24;;;;;;;7.78;4.95;;;16.60;40.90;;;;;;5072479;28;20184;-87
2022/04/21 09:56:08;;;;;;;7.95;5.72;;;16.60;41.10;;;;;;5062008;28;20207;-87
2022/04/21 09:58:38;;;;;;;7.07;5.50;;;16.70;40.90;;;;;;5079488;28;20583;-88
2022/04/21 10:01:04;;;;;;;9.80;6.25;;;16.70;40.00;;;;;;5060625;28;20267;-86
2022/04/21 10:03:34;;;;;;;8.05;5.90;;;16.70;40.10;;;;;;5059329;28;20213;-87
2022/04/21 10:06:01;;;;;;;5.88;4.20;;;16.80;39.20;;;;;;5077852;28;20200;-88
2022/04/21 10:08:29;;;;;;;6.07;3.67;;;16.90;38.60;;;;;;5059438;28;20180;-87
2022/04/21 10:10:55;;;;;;;6.82;3.90;;;17.00;38.00;;;;;;5060925;28;20168;-87
2022/04/21 10:13:22;;;;;;;9.07;4.70;;;16.90;37.80;;;;;;5060507;28;20184;-87
2022/04/21 10:15:51;;;;;;;10.95;5.05;;;16.80;37.20;;;;;;5062241;28;20276;-87
2022/04/21 10:18:18;;;;;;;7.68;4.55;;;16.70;37.40;;;;;;5079261;28;20180;-87
2022/04/21 10:20:51;;;;;;;6.18;4.38;;;16.70;38.20;;;;;;5079755;28;20176;-87
2022/04/21 10:23:18;;;;;;;7.78;4.30;;;16.90;36.80;;;;;;5041984;28;20216;-87
2022/04/21 10:25:44;;;;;;;4.75;3.78;;;17.00;36.80;;;;;;5042005;28;20239;-86
2022/04/21 10:28:36;;;;;;;4.20;3.75;;;17.00;36.30;;;;;;5058197;28;20184;-87
2022/04/21 10:31:35;;;;;;;7.95;5.00;;;17.00;35.90;;;;;;5058115;28;20259;-87
2022/04/21 10:34:07;;;;;;;7.05;4.32;;;17.00;35.80;;;;;;5056684;28;20188;-87
2022/04/21 10:36:41;;;;;;;8.70;4.38;;;17.20;36.30;;;;;;5039662;28;20216;-87
2022/04/21 10:39:25;;;;;;;6.65;4.18;;;17.20;36.00;;;;;;5043688;28;20173;-88
2022/04/21 10:42:19;;;;;;;5.03;3.75;;;17.40;35.10;;;;;;5058480;28;20708;-86
2022/04/21 10:44:52;;;;;;;5.13;4.40;;;17.40;34.80;;;;;;5059504;28;20208;-87
2022/04/21 10:47:35;;;;;;;4.53;4.13;;;17.50;35.80;;;;;;5061198;28;20183;-86
2022/04/21 10:50:14;;;;;;;13.20;5.82;;;17.30;37.50;;;;;;5059518;28;20180;-86
2022/04/21 10:57:53;;;;;;;8.43;4.68;;;17.50;35.80;;;;;;5096726;28;20175;-86
2022/04/21 11:00:29;;;;;;;9.02;4.43;;;17.60;35.50;;;;;;5077692;28;20188;-87
2022/04/21 11:03:10;;;;;;;6.78;4.70;;;17.60;35.40;;;;;;5096011;28;20199;-87
2022/04/21 11:05:39;;;;;;;10.25;4.18;;;17.70;35.10;;;;;;5097927;28;20272;-87
2022/04/21 11:08:13;;;;;;;6.68;4.90;;;17.70;35.20;;;;;;5093078;28;20623;-88
2022/04/21 11:10:44;;;;;;;7.45;4.60;;;17.60;35.20;;;;;;5078967;28;20178;-88
2022/04/21 11:13:11;;;;;;;7.15;4.75;;;17.80;34.70;;;;;;5043909;28;20199;-88
2022/04/21 11:15:49;;;;;;;11.60;4.05;;;17.80;34.30;;;;;;5078507;28;20201;-87
2022/04/21 11:18:29;;;;;;;6.68;3.80;;;17.80;33.40;;;;;;5077100;28;20202;-88
2022/04/21 11:21:26;;;;;;;5.35;4.00;;;17.70;32.80;;;;;;5077103;28;20195;-88
2022/04/21 11:23:54;;;;;;;5.88;4.15;;;17.50;33.10;;;;;;5058593;28;20273;-87
2022/04/21 11:26:30;;;;;;;5.28;4.30;;;17.60;33.00;;;;;;5079393;28;20290;-87
2022/04/21 11:29:03;;;;;;;4.25;3.85;;;17.50;33.80;;;;;;5081285;28;20176;-88
2022/04/21 11:31:29;;;;;;;5.38;4.70;;;17.70;33.70;;;;;;5077341;28;20184;-88
2022/04/21 11:34:01;;;;;;;9.23;4.60;;;17.70;34.10;;;;;;5054968;28;20180;-88
2022/04/21 11:36:35;;;;;;;4.38;3.97;;;17.80;34.50;;;;;;5055666;28;20469;-87
2022/04/21 11:39:06;;;;;;;8.40;3.45;;;17.90;34.40;;;;;;5073458;28;20641;-87
2022/04/21 11:41:32;;;;;;;5.22;4.00;;;18.00;34.30;;;;;;5055040;28;20596;-88
2022/04/21 11:43:58;;;;;;;9.68;3.92;;;18.10;34.20;;;;;;5055195;28;20636;-88
2022/04/21 11:46:24;;;;;;;7.90;3.57;;;18.10;33.10;;;;;;5073651;28;20200;-87
2022/04/21 11:49:00;;;;;;;3.33;3.03;;;18.20;33.10;;;;;;5073425;28;20403;-88
2022/04/21 11:51:27;;;;;;;8.70;4.03;;;18.20;32.70;;;;;;5040411;28;20422;-87
2022/04/21 11:53:52;;;;;;;5.78;3.90;;;18.20;33.10;;;;;;5064146;28;20180;-87
2022/04/21 11:56:21;;;;;;;4.17;3.73;;;18.30;32.70;;;;;;5060253;28;20616;-85
2022/04/21 11:58:47;;;;;;;6.13;3.53;;;18.30;32.20;;;;;;5060392;28;20418;-87
2022/04/21 12:06:53;;;;;;;6.40;4.05;;;18.40;31.80;;;;;;5088703;28;20191;-86
2022/04/21 12:09:21;;;;;;;7.53;3.92;;;18.40;31.90;;;;;;5069977;28;20256;-87
2022/04/21 12:11:59;;;;;;;8.05;5.05;;;18.40;32.60;;;;;;5084690;28;20267;-86
2022/04/21 12:14:27;;;;;;;11.32;4.30;;;18.40;33.00;;;;;;5061552;28;20180;-86
2022/04/21 12:17:03;;;;;;;7.38;3.95;;;18.40;33.20;;;;;;5059958;28;20187;-86
2022/04/21 12:19:35;;;;;;;6.10;3.90;;;18.30;33.30;;;;;;5045630;28;20176;-86
2022/04/21 12:22:08;;;;;;;9.73;5.00;;;18.40;33.40;;;;;;5077560;28;20208;-86
2022/04/21 12:24:37;;;;;;;7.43;3.75;;;18.60;33.30;;;;;;5060446;28;20172;-86
2022/04/21 12:27:12;;;;;;;8.23;3.92;;;18.60;33.50;;;;;;5060061;28;20652;-86
2022/04/21 12:29:57;;;;;;;8.73;4.32;;;18.40;33.30;;;;;;5059353;28;20173;-86
2022/04/21 12:32:30;;;;;;;4.80;3.60;;;18.40;33.30;;;;;;5059440;28;20188;-86
2022/04/21 12:34:58;;;;;;;11.00;4.20;;;18.60;33.10;;;;;;5063590;28;20260;-85
2022/04/21 12:37:30;;;;;;;7.43;4.20;;;18.70;33.30;;;;;;5053688;28;20188;-87
2022/04/21 12:39:58;;;;;;;7.43;3.40;;;18.60;33.70;;;;;;5089131;28;20191;-86
2022/04/21 12:42:24;;;;;;;9.15;4.53;;;18.60;34.00;;;;;;5067360;28;20212;-87
2022/04/21 12:44:51;;;;;;;3.97;3.00;;;18.70;33.60;;;;;;5067420;28;20192;-88
2022/04/21 12:47:21;;;;;;;5.22;3.63;;;18.90;32.20;;;;;;5063197;28;20173;-88
2022/04/21 12:49:51;;;;;;;5.43;2.95;;;19.00;30.40;;;;;;5061797;28;20177;-87
2022/04/21 12:52:36;;;;;;;4.68;3.53;;;19.00;30.00;;;;;;5060987;28;20181;-87
2022/04/21 12:55:05;;;;;;;4.38;3.15;;;18.90;30.50;;;;;;5079246;28;20292;-88
2022/04/21 12:57:31;;;;;;;3.85;3.15;;;19.00;30.00;;;;;;5060220;28;20847;-87
2022/04/21 12:59:57;;;;;;;4.18;3.25;;;19.00;30.00;;;;;;5060549;28;20597;-87
2022/04/21 13:02:23;;;;;;;7.72;3.28;;;19.10;30.00;;;;;;5060563;28;20830;-88
2022/04/21 13:04:49;;;;;;;3.43;2.97;;;19.10;30.00;;;;;;5061039;28;20207;-88
2022/04/21 13:07:15;;;;;;;3.30;2.78;;;19.00;30.00;;;;;;5061056;28;21060;-87
2022/04/21 13:09:41;;;;;;;4.10;3.23;;;19.00;30.00;;;;;;5061832;28;20172;-88
2022/04/21 13:12:08;;;;;;;7.82;3.50;;;18.90;30.00;;;;;;5062350;28;20445;-87
2022/04/21 13:14:34;;;;;;;5.43;3.55;;;18.80;30.00;;;;;;5068366;28;20181;-87
2022/04/21 13:17:00;;;;;;;7.83;4.00;;;18.90;30.00;;;;;;5061720;28;20267;-87
2022/04/21 13:19:26;;;;;;;6.87;4.47;;;19.00;30.00;;;;;;5060548;28;20414;-88
2022/04/21 13:21:52;;;;;;;4.87;3.17;;;19.10;30.00;;;;;;5059925;28;20208;-87
2022/04/21 13:24:24;;;;;;;4.63;4.03;;;19.10;30.00;;;;;;5062480;28;20207;-87
2022/04/21 13:26:53;;;;;;;5.18;3.70;;;18.90;30.00;;;;;;5062425;28;20185;-88
2022/04/21 13:29:20;;;;;;;6.78;3.58;;;19.00;30.00;;;;;;5063360;28;20329;-87
2022/04/21 13:34:32;;;;;;;3.72;3.40;;;18.90;30.00;;;;;;5079521;28;20160;-87
2022/04/21 13:36:58;;;;;;;4.65;3.65;;;18.90;30.00;;;;;;5064043;28;20176;-86
2022/04/21 13:39:23;;;;;;;3.30;3.00;;;19.00;30.00;;;;;;5065946;28;20226;-87
2022/04/21 13:41:49;;;;;;;4.60;3.20;;;19.10;30.00;;;;;;5067472;28;20204;-87
2022/04/21 13:44:16;;;;;;;4.60;3.33;;;19.20;30.00;;;;;;5069036;28;20207;-87
2022/04/21 13:46:42;;;;;;;9.65;3.08;;;19.20;30.00;;;;;;5066659;28;20208;-87